Time;durP1;ratioP1;P1;durP2;ratioP2;P2;SDS_P1;SDS_P2;PMS_P1;PMS_P2;Temp;Humidity;BMP_temperature;BMP_pressure;BME280_temperature;BME280_humidity;BME280_pressure;Samples;Min_cycle;Max_cycle;Signal;HPM_P1;HPM_P2
2020/12/10 00:00:17;;;;;;;31.40;14.52;;;;;;;1.90;100.00;100538.00;4993617;28;20019;-82
2020/12/10 00:02:43;;;;;;;24.95;13.88;;;;;;;1.92;100.00;100536.88;4993531;28;20121;-82
2020/12/10 00:05:11;;;;;;;19.38;10.75;;;;;;;1.88;100.00;100532.13;4978289;28;20031;-81
2020/12/10 00:07:37;;;;;;;22.38;10.70;;;;;;;1.87;100.00;100533.06;4977922;28;20118;-81
2020/12/10 00:10:08;;;;;;;26.15;12.30;;;;;;;1.96;100.00;100535.59;4985083;28;20126;-82
2020/12/10 00:12:40;;;;;;;25.27;12.23;;;;;;;2.05;100.00;100531.22;4993494;28;20047;-81
2020/12/10 00:15:06;;;;;;;28.75;13.57;;;;;;;2.09;100.00;100531.72;4993222;28;20051;-81
2020/12/10 00:17:31;;;;;;;25.27;13.20;;;;;;;2.12;100.00;100532.25;4977717;28;20126;-82
2020/12/10 00:19:57;;;;;;;23.50;12.52;;;;;;;2.12;100.00;100532.25;4993128;28;20031;-81
2020/12/10 00:22:23;;;;;;;24.88;13.05;;;;;;;2.17;100.00;100527.34;4977946;28;20089;-81
2020/12/10 00:24:49;;;;;;;28.85;13.70;;;;;;;2.22;100.00;100526.91;4993153;28;20093;-82
2020/12/10 00:27:22;;;;;;;29.50;14.40;;;;;;;2.16;100.00;100530.16;4989816;28;20054;-82
2020/12/10 00:29:47;;;;;;;30.25;14.95;;;;;;;2.18;100.00;100530.78;5005354;28;20031;-81
2020/12/10 00:32:13;;;;;;;31.60;15.70;;;;;;;2.12;100.00;100528.78;4980852;28;20443;-82
2020/12/10 00:34:40;;;;;;;32.95;16.67;;;;;;;2.19;100.00;100519.34;4976785;28;20037;-82
2020/12/10 00:37:06;;;;;;;30.58;16.15;;;;;;;2.20;100.00;100526.22;4977770;28;20042;-82
2020/12/10 00:39:35;;;;;;;34.08;17.77;;;;;;;2.14;100.00;100511.13;4992671;28;20034;-82
2020/12/10 00:42:02;;;;;;;35.45;17.35;;;;;;;2.18;100.00;100510.69;4992924;28;20027;-82
2020/12/10 00:44:28;;;;;;;36.05;18.10;;;;;;;2.20;100.00;100508.69;4986837;28;20500;-81
2020/12/10 00:46:53;;;;;;;35.55;17.35;;;;;;;2.12;100.00;100505.22;4977387;28;20035;-82
2020/12/10 00:49:21;;;;;;;44.30;20.80;;;;;;;1.91;100.00;100503.81;4992629;28;20456;-81
2020/12/10 00:51:46;;;;;;;39.25;17.98;;;;;;;1.94;100.00;100498.25;4992479;28;20030;-82
2020/12/10 00:54:12;;;;;;;39.85;17.88;;;;;;;1.99;100.00;100492.53;4993032;28;20027;-82
2020/12/10 00:56:38;;;;;;;40.40;21.17;;;;;;;2.07;100.00;100495.22;4977188;28;20526;-82
2020/12/10 00:59:03;;;;;;;47.17;24.48;;;;;;;1.91;100.00;100492.53;4976642;28;20034;-81
2020/12/10 01:01:29;;;;;;;41.47;19.13;;;;;;;1.78;100.00;100495.53;4992316;28;20035;-82
2020/12/10 01:03:54;;;;;;;34.40;17.38;;;;;;;1.87;100.00;100489.38;4977254;28;20034;-81
2020/12/10 01:06:20;;;;;;;34.38;15.93;;;;;;;1.82;100.00;100486.41;4992561;28;20026;-82
2020/12/10 01:08:45;;;;;;;44.55;17.08;;;;;;;1.77;100.00;100479.00;4976887;28;20455;-82
2020/12/10 01:11:11;;;;;;;32.50;14.88;;;;;;;1.74;100.00;100476.69;4992309;28;20038;-81
2020/12/10 01:13:36;;;;;;;39.25;15.82;;;;;;;1.77;100.00;100479.00;4991849;28;20050;-81
2020/12/10 01:16:02;;;;;;;41.05;16.25;;;;;;;1.82;100.00;100475.94;4992042;28;20023;-82
2020/12/10 01:18:27;;;;;;;41.05;17.65;;;;;;;2.03;100.00;100465.91;4992171;28;20027;-81
2020/12/10 01:20:53;;;;;;;36.53;15.77;;;;;;;2.13;100.00;100454.47;4992243;28;20041;-82
2020/12/10 01:23:18;;;;;;;36.10;15.95;;;;;;;2.05;100.00;100448.19;4976751;28;20091;-82
2020/12/10 01:25:43;;;;;;;42.58;17.40;;;;;;;2.04;100.00;100437.91;4996216;28;20027;-81
2020/12/10 01:28:09;;;;;;;37.92;15.98;;;;;;;2.10;100.00;100439.06;4991769;28;20054;-81
2020/12/10 01:30:34;;;;;;;48.20;21.90;;;;;;;1.96;100.00;100425.56;4976693;28;20380;-82
2020/12/10 01:33:00;;;;;;;51.70;22.33;;;;;;;2.39;100.00;100420.31;4991823;28;20470;-81
2020/12/10 01:35:25;;;;;;;44.28;19.63;;;;;;;2.34;100.00;100407.69;4992017;28;20022;-82
2020/12/10 01:37:50;;;;;;;43.45;18.20;;;;;;;2.36;100.00;100399.66;4991902;28;20015;-82
2020/12/10 01:40:16;;;;;;;40.30;18.38;;;;;;;2.32;100.00;100395.72;4976777;28;20375;-81
2020/12/10 01:42:41;;;;;;;48.28;19.58;;;;;;;2.17;100.00;100393.72;4976363;28;20030;-81
2020/12/10 01:45:07;;;;;;;47.63;21.00;;;;;;;2.32;100.00;100396.53;4991651;28;20019;-82
2020/12/10 01:47:33;;;;;;;41.42;18.83;;;;;;;2.00;100.00;100378.94;4991813;28;20042;-81
2020/12/10 01:49:59;;;;;;;46.22;23.20;;;;;;;2.14;100.00;100380.13;4975332;28;20085;-82
2020/12/10 01:52:24;;;;;;;60.42;26.48;;;;;;;2.29;100.00;100370.66;4991286;28;20573;-82
2020/12/10 01:54:50;;;;;;;56.50;24.20;;;;;;;2.01;100.00;100360.44;4991612;28;20034;-81
2020/12/10 01:57:15;;;;;;;58.10;26.17;;;;;;;2.11;100.00;100351.63;4997907;28;20019;-81
2020/12/10 01:59:41;;;;;;;49.17;21.77;;;;;;;2.08;100.00;100346.69;4984135;28;20030;-81
2020/12/10 02:02:06;;;;;;;47.47;21.25;;;;;;;2.19;100.00;100336.75;4990794;28;20041;-82
2020/12/10 02:04:34;;;;;;;56.03;25.23;;;;;;;2.32;100.00;100332.81;4992227;28;20125;-81
2020/12/10 02:07:00;;;;;;;65.15;30.02;;;;;;;2.45;100.00;100341.03;4976102;28;20093;-82
2020/12/10 02:09:26;;;;;;;51.33;23.58;;;;;;;2.35;100.00;100343.00;4976131;28;20030;-82
2020/12/10 02:11:53;;;;;;;40.53;19.38;;;;;;;2.44;100.00;100349.88;4975637;28;20455;-81
2020/12/10 02:14:19;;;;;;;48.90;23.73;;;;;;;2.52;100.00;100355.97;4974360;28;20443;-82
2020/12/10 02:16:45;;;;;;;43.83;20.70;;;;;;;2.62;100.00;100339.25;4989409;28;20035;-81
2020/12/10 02:19:10;;;;;;;50.78;25.08;;;;;;;2.59;100.00;100343.00;4975594;28;20046;-82
2020/12/10 02:21:37;;;;;;;50.97;23.67;;;;;;;2.65;100.00;100350.22;4990728;28;20049;-82
2020/12/10 02:24:03;;;;;;;64.35;29.52;;;;;;;2.63;100.00;100344.34;4975822;28;20035;-82
2020/12/10 02:26:28;;;;;;;57.60;26.58;;;;;;;2.64;100.00;100332.88;4991152;28;20387;-81
2020/12/10 02:29:02;;;;;;;48.58;22.98;;;;;;;2.53;100.00;100338.41;4996839;28;20465;-82
2020/12/10 02:31:29;;;;;;;43.72;20.60;;;;;;;1.97;100.00;100345.22;4912283;28;20112;-81
2020/12/10 02:34:02;;;;;;;35.33;14.15;;;;;;;2.17;100.00;100346.56;4982956;28;20030;-81
2020/12/10 02:36:28;;;;;;;36.28;15.52;;;;;;;1.94;100.00;100340.28;4999271;28;20403;-82
2020/12/10 02:38:53;;;;;;;36.10;14.95;;;;;;;1.98;100.00;100331.94;4981032;28;20076;-82
2020/12/10 02:41:19;;;;;;;33.03;14.95;;;;;;;1.89;100.00;100334.69;4999112;28;20026;-81
2020/12/10 02:43:44;;;;;;;34.67;14.63;;;;;;;1.93;100.00;100326.34;5000604;28;20033;-82
2020/12/10 02:46:10;;;;;;;30.05;13.35;;;;;;;2.04;100.00;100326.06;4987111;28;20023;-81
2020/12/10 02:48:35;;;;;;;33.72;14.77;;;;;;;1.98;100.00;100329.31;4975198;28;20578;-82
2020/12/10 02:51:01;;;;;;;35.45;15.20;;;;;;;1.96;100.00;100341.75;4990200;28;20084;-81
2020/12/10 02:53:28;;;;;;;38.50;15.63;;;;;;;1.88;100.00;100343.53;4990367;28;20500;-82
2020/12/10 02:55:54;;;;;;;35.10;15.65;;;;;;;1.94;100.00;100348.97;4990122;28;20117;-82
2020/12/10 02:58:19;;;;;;;35.55;16.08;;;;;;;1.73;100.00;100362.47;4985227;28;20068;-82
2020/12/10 03:00:44;;;;;;;38.40;16.77;;;;;;;1.53;100.00;100355.81;4990182;28;20058;-81
2020/12/10 03:03:10;;;;;;;38.50;16.40;;;;;;;1.54;100.00;100365.28;4974983;28;20030;-81
2020/12/10 03:05:35;;;;;;;34.22;13.85;;;;;;;1.56;100.00;100371.19;4990080;28;20380;-82
2020/12/10 03:08:01;;;;;;;37.70;14.15;;;;;;;1.31;100.00;100370.25;4990242;28;20117;-81
2020/12/10 03:10:26;;;;;;;32.95;13.77;;;;;;;1.48;100.00;100369.34;4990353;28;20082;-82
2020/12/10 03:12:51;;;;;;;31.65;13.80;;;;;;;1.31;100.00;100375.47;4974981;28;20035;-81
2020/12/10 03:15:17;;;;;;;33.42;14.23;;;;;;;1.28;100.00;100376.59;4989794;28;20043;-82
2020/12/10 03:17:42;;;;;;;31.00;13.35;;;;;;;1.61;100.00;100379.41;4959393;28;20030;-82
2020/12/10 03:20:07;;;;;;;33.65;15.43;;;;;;;1.20;100.00;100388.81;4990113;28;20081;-81
2020/12/10 03:22:33;;;;;;;33.60;16.83;;;;;;;1.19;100.00;100401.06;4982718;28;20379;-82
2020/12/10 03:24:59;;;;;;;27.13;9.73;;;;;;;2.54;100.00;100402.97;4989998;28;20030;-82
2020/12/10 03:27:24;;;;;;;35.65;15.98;;;;;;;1.81;100.00;100406.19;4989312;28;20026;-82
2020/12/10 03:29:50;;;;;;;28.73;14.20;;;;;;;1.35;100.00;100414.25;4974617;28;20026;-82
2020/12/10 03:32:15;;;;;;;29.67;12.95;;;;;;;1.06;100.00;100409.31;4974772;28;20023;-81
2020/12/10 03:34:41;;;;;;;35.55;15.88;;;;;;;1.03;100.00;100412.25;4989580;28;20026;-81
2020/12/10 03:37:07;;;;;;;42.70;16.42;;;;;;;0.81;100.00;100410.88;4989879;28;20030;-81
2020/12/10 03:39:32;;;;;;;45.83;17.02;;;;;;;0.82;100.00;100417.78;4989780;28;20034;-81
2020/12/10 03:41:59;;;;;;;42.85;20.67;;;;;;;0.72;100.00;100431.88;4989887;28;20372;-81
2020/12/10 03:44:26;;;;;;;52.47;20.85;;;;;;;0.66;100.00;100435.91;4989577;28;20038;-81
2020/12/10 03:46:51;;;;;;;48.30;18.77;;;;;;;0.65;100.00;100442.13;4980461;28;20054;-81
2020/12/10 03:49:17;;;;;;;46.97;19.20;;;;;;;0.65;100.00;100458.63;4989892;28;20046;-81
2020/12/10 03:51:42;;;;;;;50.50;18.42;;;;;;;0.70;100.00;100455.59;4989366;28;20023;-81
2020/12/10 03:54:08;;;;;;;50.42;19.85;;;;;;;0.80;100.00;100460.72;4989644;28;20387;-81
2020/12/10 03:56:33;;;;;;;47.90;20.15;;;;;;;0.73;100.00;100459.66;4989927;28;20115;-81
2020/12/10 03:59:00;;;;;;;53.08;22.33;;;;;;;0.72;100.00;100464.06;4990021;28;20027;-81
2020/12/10 04:01:26;;;;;;;47.15;17.95;;;;;;;0.67;100.00;100458.50;4989624;28;20113;-81
2020/12/10 04:03:53;;;;;;;59.00;21.02;;;;;;;0.64;100.00;100459.59;4987940;28;20019;-81
2020/12/10 04:06:18;;;;;;;52.92;20.98;;;;;;;0.74;100.00;100459.53;4621815;28;10000174;-82
2020/12/10 04:08:44;;;;;;;53.65;21.27;;;;;;;0.77;100.00;100459.22;4964149;28;20031;-81
2020/12/10 04:11:09;;;;;;;54.15;22.60;;;;;;;0.66;100.00;100465.47;5000851;28;20110;-81
2020/12/10 04:13:34;;;;;;;46.72;17.73;;;;;;;0.62;100.00;100445.03;4967646;28;20082;-81
2020/12/10 04:16:01;;;;;;;51.97;21.20;;;;;;;0.68;100.00;100449.66;4968202;28;20031;-81
2020/12/10 04:18:27;;;;;;;54.28;20.92;;;;;;;0.65;100.00;100449.97;4968862;28;20038;-81
2020/12/10 04:20:53;;;;;;;55.30;21.40;;;;;;;0.69;100.00;100456.53;4985737;28;20030;-81
2020/12/10 04:23:18;;;;;;;56.95;22.55;;;;;;;0.70;100.00;100452.97;5007915;28;20029;-81
2020/12/10 04:25:44;;;;;;;58.00;21.65;;;;;;;0.61;100.00;100446.00;5003283;28;20034;-80
2020/12/10 04:28:09;;;;;;;61.67;23.50;;;;;;;0.54;100.00;100447.56;4989716;28;20158;-82
2020/12/10 04:30:35;;;;;;;55.33;21.08;;;;;;;0.59;100.00;100440.91;4974335;28;20023;-81
2020/12/10 04:33:00;;;;;;;59.05;21.63;;;;;;;0.51;100.00;100425.13;4989556;28;20459;-81
2020/12/10 04:35:25;;;;;;;61.85;23.95;;;;;;;0.56;100.00;100438.59;4976460;28;20023;-81
2020/12/10 04:37:51;;;;;;;65.95;23.92;;;;;;;0.52;100.00;100446.91;4993233;28;20478;-81
2020/12/10 04:40:16;;;;;;;68.90;24.83;;;;;;;0.45;100.00;100462.31;4977512;28;20096;-81
2020/12/10 04:42:43;;;;;;;68.15;23.27;;;;;;;0.45;100.00;100442.25;4992711;28;20371;-81
2020/12/10 04:45:09;;;;;;;64.55;23.52;;;;;;;0.41;100.00;100442.69;4992944;28;20022;-81
2020/12/10 04:47:34;;;;;;;72.93;25.73;;;;;;;0.29;100.00;100451.69;4992814;28;20045;-83
2020/12/10 04:50:04;;;;;;;62.63;23.88;;;;;;;0.25;100.00;100452.97;4977330;28;20494;-83
2020/12/10 04:52:32;;;;;;;67.55;23.67;;;;;;;0.35;100.00;100451.91;4977360;28;20089;-84
2020/12/10 04:54:58;;;;;;;75.43;30.73;;;;;;;0.36;100.00;100460.56;4992557;28;20037;-83
2020/12/10 04:57:25;;;;;;;68.10;24.60;;;;;;;0.42;100.00;100450.38;4977616;28;20027;-83
2020/12/10 04:59:51;;;;;;;66.97;25.00;;;;;;;0.32;100.00;100459.25;4983592;28;20046;-83
2020/12/10 05:02:19;;;;;;;72.60;25.13;;;;;;;0.39;100.00;100455.06;4992486;28;20023;-83
2020/12/10 05:04:45;;;;;;;64.70;24.25;;;;;;;0.36;100.00;100448.34;4961605;28;20019;-83
2020/12/10 05:07:10;;;;;;;62.83;22.58;;;;;;;0.32;100.00;100446.19;4988950;28;20452;-81
2020/12/10 05:09:36;;;;;;;56.97;21.73;;;;;;;0.33;100.00;100448.63;4977078;28;20033;-82
2020/12/10 05:12:01;;;;;;;62.95;23.20;;;;;;;0.38;100.00;100440.38;4976763;28;20109;-81
2020/12/10 05:14:43;;;;;;;65.00;23.58;;;;;;;0.37;100.00;100442.16;4976936;28;20042;-81
2020/12/10 05:17:14;;;;;;;66.13;26.65;;;;;;;0.29;100.00;100444.66;4989190;28;20109;-81
2020/12/10 05:19:40;;;;;;;59.97;23.27;;;;;;;0.27;100.00;100443.97;4988185;28;20053;-81
2020/12/10 05:22:07;;;;;;;62.75;25.52;;;;;;;0.40;100.00;100443.66;4996731;28;20073;-81
2020/12/10 05:24:34;;;;;;;69.72;28.08;;;;;;;0.34;100.00;100442.44;4991988;28;20038;-82
2020/12/10 05:27:20;;;;;;;61.80;22.95;;;;;;;0.07;100.00;100452.91;4992173;28;20022;-81
2020/12/10 05:29:46;;;;;;;70.60;27.42;;;;;;;0.25;100.00;100463.41;4991925;28;20456;-81
2020/12/10 05:32:31;;;;;;;81.65;26.70;;;;;;;0.25;100.00;100466.84;4976713;28;20491;-82
2020/12/10 05:34:57;;;;;;;139.95;64.07;;;;;;;0.28;100.00;100452.66;4963454;28;20105;-81
2020/12/10 05:37:32;;;;;;;134.32;65.05;;;;;;;0.31;100.00;100452.38;4991872;28;20121;-81
2020/12/10 05:39:59;;;;;;;76.20;26.95;;;;;;;0.26;100.00;100451.97;4991814;28;20029;-81
2020/12/10 05:42:33;;;;;;;74.00;27.00;;;;;;;0.23;100.00;100468.75;4976205;28;20476;-81
2020/12/10 05:44:59;;;;;;;72.28;26.80;;;;;;;0.18;100.00;100484.88;4991437;28;20061;-81
2020/12/10 05:47:28;;;;;;;76.10;26.10;;;;;;;0.18;100.00;100479.66;4976426;28;20109;-81
2020/12/10 05:49:55;;;;;;;78.85;31.55;;;;;;;0.21;100.00;100489.81;4991698;28;20031;-81
2020/12/10 05:52:24;;;;;;;68.60;28.27;;;;;;;0.20;100.00;100490.75;4991242;28;20436;-81
2020/12/10 05:54:56;;;;;;;64.18;28.92;;;;;;;0.13;100.00;100489.72;4976375;28;20037;-81
2020/12/10 05:57:22;;;;;;;;;;;;;;;0.14;100.00;100483.50;4976492;28;20039;-81
2020/12/10 05:59:48;;;;;;;65.50;22.95;;;;;;;0.11;100.00;100491.63;4991251;28;20423;-81
2020/12/10 06:02:17;;;;;;;55.05;21.60;;;;;;;0.05;100.00;100497.44;4991318;28;20057;-81
2020/12/10 06:04:45;;;;;;;64.35;21.17;;;;;;;0.08;100.00;100512.00;4991074;28;20065;-81
2020/12/10 06:07:11;;;;;;;60.80;20.15;;;;;;;0.12;100.00;100513.34;4991071;28;20081;-81
2020/12/10 06:09:37;;;;;;;57.22;20.73;;;;;;;0.17;100.00;100508.53;4991525;28;20054;-81
2020/12/10 06:12:07;;;;;;;52.17;18.92;;;;;;;0.09;100.00;100514.47;4976048;28;20054;-81
2020/12/10 06:15:00;;;;;;;55.63;19.13;;;;;;;0.11;100.00;100511.72;4990797;28;20065;-81
2020/12/10 06:17:26;;;;;;;51.83;18.75;;;;;;;0.11;100.00;100509.91;4991853;28;20035;-81
2020/12/10 06:19:52;;;;;;;71.18;29.55;;;;;;;0.21;100.00;100508.09;4991029;28;20105;-81
2020/12/10 06:22:25;;;;;;;71.43;30.92;;;;;;;0.20;100.00;100516.88;4990852;28;20034;-81
2020/12/10 06:24:51;;;;;;;54.60;19.58;;;;;;;0.22;100.00;100527.22;4961395;28;20065;-81
2020/12/10 06:27:25;;;;;;;55.38;19.55;;;;;;;0.19;100.00;100530.94;4991088;28;20023;-81
2020/12/10 06:30:08;;;;;;;55.03;19.58;;;;;;;0.22;100.00;100541.09;4975619;28;20034;-81
2020/12/10 06:32:39;;;;;;;52.97;18.15;;;;;;;0.29;100.00;100538.72;4990782;28;20026;-81
2020/12/10 06:35:05;;;;;;;79.13;29.90;;;;;;;0.22;100.00;100528.03;4987279;28;20027;-81
2020/12/10 06:37:31;;;;;;;50.45;18.27;;;;;;;0.28;100.00;100542.31;4990828;28;20037;-81
2020/12/10 06:39:59;;;;;;;48.72;18.42;;;;;;;0.24;100.00;100554.00;4990731;28;20058;-81
2020/12/10 06:42:25;;;;;;;48.60;17.75;;;;;;;0.16;100.00;100546.88;4990145;28;20391;-81
2020/12/10 06:44:51;;;;;;;46.20;17.58;;;;;;;0.25;100.00;100566.09;4990306;28;20023;-81
2020/12/10 06:47:17;;;;;;;44.33;15.88;;;;;;;0.28;100.00;100552.75;4927444;28;20057;-81
2020/12/10 06:49:42;;;;;;;56.47;23.10;;;;;;;0.37;100.00;100541.44;4969007;28;20065;-81
2020/12/10 06:52:12;;;;;;;56.38;18.05;;;;;;;0.24;100.00;100540.94;4987236;28;20468;-82
2020/12/10 06:55:10;;;;;;;47.58;18.30;;;;;;;0.33;100.00;100560.16;4975182;28;20026;-81
2020/12/10 06:58:05;;;;;;;51.92;19.35;;;;;;;0.26;100.00;100564.31;4973578;28;20431;-81
2020/12/10 07:00:48;;;;;;;47.03;17.52;;;;;;;0.22;100.00;100564.59;4990373;28;20039;-81
2020/12/10 07:03:30;;;;;;;42.28;18.15;;;;;;;0.24;100.00;100567.06;4990357;28;20361;-81
2020/12/10 07:05:56;;;;;;;52.10;20.95;;;;;;;0.42;100.00;100573.22;4991915;28;20348;-81
2020/12/10 07:08:21;;;;;;;47.03;17.73;;;;;;;0.20;100.00;100571.75;4974204;28;20041;-81
2020/12/10 07:10:52;;;;;;;41.40;16.35;;;;;;;0.33;100.00;100560.16;4989800;28;20027;-81
2020/12/10 07:13:30;;;;;;;43.10;16.92;;;;;;;0.43;100.00;100574.84;4996557;28;20797;-81
2020/12/10 07:15:56;;;;;;;44.67;17.42;;;;;;;0.32;100.00;100579.41;4984774;28;20030;-81
2020/12/10 07:18:22;;;;;;;39.90;15.15;;;;;;;0.34;100.00;100564.44;4983477;28;20046;-81
2020/12/10 07:20:48;;;;;;;37.72;17.17;;;;;;;0.47;100.00;100567.53;4999976;28;20037;-81
2020/12/10 07:23:14;;;;;;;34.97;14.55;;;;;;;0.37;100.00;100559.75;4998235;28;20031;-80
2020/12/10 07:25:42;;;;;;;38.38;17.45;;;;;;;0.44;100.00;100573.88;4974785;28;20026;-81
2020/12/10 07:28:09;;;;;;;40.70;16.98;;;;;;;0.44;100.00;100558.19;4990192;28;20030;-82
2020/12/10 07:30:37;;;;;;;54.15;22.52;;;;;;;0.46;100.00;100558.06;5003194;28;20117;-82
2020/12/10 07:33:41;;;;;;;67.03;26.33;;;;;;;0.64;100.00;100553.72;4975560;28;20116;-81
2020/12/10 07:36:07;;;;;;;48.55;20.52;;;;;;;0.56;100.00;100551.00;4983734;28;20090;-81
2020/12/10 07:38:35;;;;;;;80.63;31.60;;;;;;;0.60;100.00;100549.72;4973925;28;20121;-82
2020/12/10 07:41:00;;;;;;;69.85;27.23;;;;;;;0.72;100.00;100560.81;4982749;28;20031;-82
2020/12/10 07:43:26;;;;;;;69.78;26.52;;;;;;;0.70;100.00;100547.06;4999777;28;20036;-81
2020/12/10 07:45:52;;;;;;;145.02;55.65;;;;;;;0.67;100.00;100549.97;4985190;28;20483;-81
2020/12/10 07:48:18;;;;;;;60.38;28.00;;;;;;;0.67;100.00;100550.81;4990058;28;20034;-81
2020/12/10 07:50:47;;;;;;;69.95;26.58;;;;;;;0.69;100.00;100550.63;4978419;28;20106;-82
2020/12/10 07:53:13;;;;;;;116.40;41.10;;;;;;;0.58;100.00;100540.41;4994770;28;20431;-81
2020/12/10 07:55:56;;;;;;;60.88;24.08;;;;;;;0.64;100.00;100532.78;4994527;28;20069;-81
2020/12/10 07:58:41;;;;;;;58.95;22.05;;;;;;;0.61;100.00;100553.19;4989000;28;20031;-81
2020/12/10 08:01:07;;;;;;;156.13;53.92;;;;;;;0.53;100.00;100566.13;4989455;28;20479;-81
2020/12/10 08:04:14;;;;;;;161.95;61.90;;;;;;;0.58;100.00;100562.13;4992400;28;20062;-82
2020/12/10 08:06:40;;;;;;;91.10;41.33;;;;;;;0.59;100.00;100562.94;4986892;28;20030;-81
2020/12/10 08:09:25;;;;;;;105.38;38.60;;;;;;;0.59;100.00;100558.53;4991222;28;20023;-81
2020/12/10 08:11:55;;;;;;;121.13;41.88;;;;;;;0.71;100.00;100581.88;4978058;28;20026;-81
2020/12/10 08:14:25;;;;;;;59.63;27.08;;;;;;;0.60;100.00;100590.72;4983427;28;20051;-81
2020/12/10 08:17:02;;;;;;;67.15;31.70;;;;;;;0.66;100.00;100587.53;4989293;28;20058;-81
2020/12/10 08:19:37;;;;;;;77.22;34.60;;;;;;;0.58;100.00;100584.84;4975963;28;20034;-81
2020/12/10 08:22:15;;;;;;;65.65;28.48;;;;;;;0.65;100.00;100581.47;4970683;28;20018;-81
2020/12/10 08:24:44;;;;;;;59.47;24.67;;;;;;;0.67;100.00;100590.00;4988117;28;20174;-81
2020/12/10 08:27:15;;;;;;;79.55;31.90;;;;;;;0.64;100.00;100587.69;4976576;28;20026;-81
2020/12/10 08:30:01;;;;;;;69.18;31.38;;;;;;;0.76;100.00;100587.50;4988585;28;20023;-81
2020/12/10 08:32:27;;;;;;;42.80;20.00;;;;;;;0.69;100.00;100590.66;4972426;28;20045;-81
2020/12/10 08:35:07;;;;;;;72.80;30.27;;;;;;;0.78;100.00;100577.72;4974550;28;20027;-81
2020/12/10 08:37:40;;;;;;;44.33;20.02;;;;;;;0.75;100.00;100586.66;4985107;28;20045;-81
2020/12/10 08:40:05;;;;;;;61.88;24.58;;;;;;;0.77;100.00;100578.69;4972121;28;20045;-81
2020/12/10 08:42:31;;;;;;;52.90;23.63;;;;;;;0.88;100.00;100570.66;4990301;28;20114;-81
2020/12/10 08:44:56;;;;;;;46.33;21.88;;;;;;;0.89;100.00;100567.88;4991328;28;20069;-81
2020/12/10 08:47:27;;;;;;;40.95;17.40;;;;;;;0.83;100.00;100557.19;4972970;28;20034;-82
2020/12/10 08:50:26;;;;;;;44.65;18.88;;;;;;;0.83;100.00;100562.41;4989367;28;20049;-81
2020/12/10 08:53:00;;;;;;;36.83;17.65;;;;;;;0.92;100.00;100572.00;4974674;28;20037;-82
2020/12/10 08:55:27;;;;;;;39.03;17.25;;;;;;;1.01;100.00;100581.56;4968559;28;20035;-82
2020/12/10 08:57:56;;;;;;;36.15;14.98;;;;;;;0.71;100.00;100577.47;4987655;28;20031;-82
2020/12/10 09:00:21;;;;;;;39.55;15.93;;;;;;;0.74;100.00;100574.56;4954653;28;20069;-82
2020/12/10 09:02:46;;;;;;;51.08;23.55;;;;;;;0.84;100.00;100571.91;4966243;28;20030;-81
2020/12/10 09:05:12;;;;;;;41.10;17.50;;;;;;;0.93;100.00;100568.41;4972865;28;20030;-82
2020/12/10 09:07:37;;;;;;;42.33;18.10;;;;;;;0.73;100.00;100566.84;4973596;28;20036;-82
2020/12/10 09:10:06;;;;;;;44.55;18.67;;;;;;;0.84;100.00;100564.03;4974933;28;20106;-84
2020/12/10 09:12:32;;;;;;;41.28;17.00;;;;;;;0.84;100.00;100559.63;4993224;28;20038;-83
2020/12/10 09:15:09;;;;;;;38.75;16.75;;;;;;;0.81;100.00;100566.97;4982645;28;20080;-82
2020/12/10 09:17:40;;;;;;;34.60;15.18;;;;;;;1.06;100.00;100557.56;4972609;28;20051;-82
2020/12/10 09:20:23;;;;;;;35.47;14.70;;;;;;;0.99;100.00;100552.13;4992190;28;20039;-82
2020/12/10 09:23:01;;;;;;;41.15;18.45;;;;;;;1.18;100.00;100545.97;4975343;28;20428;-82
2020/12/10 09:25:34;;;;;;;32.85;14.82;;;;;;;1.03;100.00;100543.03;5001431;28;20027;-82
2020/12/10 09:28:19;;;;;;;31.38;14.77;;;;;;;0.88;100.00;100539.28;4990394;28;20031;-82
2020/12/10 09:30:50;;;;;;;38.97;15.55;;;;;;;0.79;100.00;100524.47;4970394;28;20027;-82
2020/12/10 09:33:16;;;;;;;44.83;20.23;;;;;;;0.63;100.00;100531.13;4971307;28;20507;-82
2020/12/10 09:35:42;;;;;;;49.28;18.63;;;;;;;1.02;100.00;100525.66;4975230;28;20022;-82
2020/12/10 09:38:23;;;;;;;38.13;16.58;;;;;;;1.09;100.00;100524.13;4974949;28;20423;-83
2020/12/10 09:40:52;;;;;;;34.58;13.13;;;;;;;1.12;100.00;100520.34;4986864;28;20030;-82
2020/12/10 09:44:14;;;;;;;31.85;12.95;;;;;;;1.12;100.00;100522.97;4990128;28;20093;-82
2020/12/10 09:47:14;;;;;;;34.28;13.45;;;;;;;1.22;100.00;100528.16;4970785;28;20031;-82
2020/12/10 09:49:41;;;;;;;24.65;10.52;;;;;;;0.86;100.00;100517.66;4294823;28;10021513;-81
2020/12/10 09:52:13;;;;;;;31.90;13.70;;;;;;;0.77;100.00;100524.59;4968376;28;20027;-81
2020/12/10 09:59:53;;;;;;;31.13;12.82;;;;;;;0.90;100.00;100525.06;4966133;28;20041;-81
2020/12/10 10:02:18;;;;;;;39.28;16.40;;;;;;;1.22;100.00;100517.69;4972786;28;20740;-82
2020/12/10 10:04:44;;;;;;;35.72;12.27;;;;;;;0.86;100.00;100509.81;4968321;28;20089;-81
2020/12/10 10:07:10;;;;;;;36.70;13.57;;;;;;;1.00;100.00;100500.63;4980967;28;20093;-81
2020/12/10 10:09:37;;;;;;;44.03;15.95;;;;;;;1.10;100.00;100502.22;4981902;28;20030;-81
2020/12/10 10:12:04;;;;;;;56.42;21.98;;;;;;;1.01;100.00;100512.75;4966310;28;20022;-81
2020/12/10 10:14:30;;;;;;;44.30;16.67;;;;;;;1.11;100.00;100513.50;4967582;28;20503;-82
2020/12/10 10:16:56;;;;;;;44.67;17.80;;;;;;;0.79;100.00;100504.38;4966864;28;20043;-82
2020/12/10 10:19:21;;;;;;;44.38;18.38;;;;;;;0.83;100.00;100516.16;4984549;28;20109;-81
2020/12/10 10:21:46;;;;;;;48.95;18.67;;;;;;;0.96;100.00;100513.19;4966316;28;20041;-82
2020/12/10 10:24:12;;;;;;;50.58;17.15;;;;;;;1.01;100.00;100503.09;4968568;28;20030;-82
2020/12/10 10:26:37;;;;;;;42.85;15.93;;;;;;;1.14;100.00;100500.94;4965443;28;20035;-81
2020/12/10 10:29:06;;;;;;;39.50;15.80;;;;;;;0.91;100.00;100503.19;4962866;28;20045;-81
2020/12/10 10:31:32;;;;;;;45.25;16.52;;;;;;;1.00;100.00;100495.41;4965969;28;20035;-82
2020/12/10 10:33:57;;;;;;;43.80;18.38;;;;;;;1.17;100.00;100491.97;4966606;28;20948;-81
2020/12/10 10:36:23;;;;;;;49.83;17.05;;;;;;;1.25;100.00;100492.03;4986609;28;20128;-82
2020/12/10 10:38:48;;;;;;;40.78;15.95;;;;;;;1.20;100.00;100490.84;4970872;28;20042;-82
2020/12/10 10:41:14;;;;;;;35.90;14.40;;;;;;;1.26;100.00;100491.06;4971016;28;20038;-82
2020/12/10 10:43:40;;;;;;;40.38;19.05;;;;;;;1.26;100.00;100472.75;4969307;28;20130;-81
2020/12/10 10:46:17;;;;;;;58.45;27.45;;;;;;;1.50;100.00;100471.28;4983955;28;20035;-82
2020/12/10 10:48:44;;;;;;;57.65;28.13;;;;;;;1.23;100.00;100469.63;4984273;28;20026;-81
2020/12/10 10:51:12;;;;;;;52.33;27.60;;;;;;;1.50;100.00;100468.69;4988640;28;20018;-82
2020/12/10 10:53:43;;;;;;;36.03;15.90;;;;;;;1.41;100.00;100466.97;4988812;28;20050;-82
2020/12/10 10:56:19;;;;;;;36.15;17.10;;;;;;;1.28;100.00;100465.56;4988669;28;20030;-82
2020/12/10 10:58:45;;;;;;;25.98;13.82;;;;;;;1.10;100.00;100475.22;4984757;28;20034;-82
2020/12/10 11:01:10;;;;;;;31.63;15.60;;;;;;;1.30;100.00;100474.09;4990364;28;20026;-81
2020/12/10 11:03:35;;;;;;;19.23;9.65;;;;;;;0.95;100.00;100468.88;4986693;28;20027;-81
2020/12/10 11:06:01;;;;;;;28.00;17.05;;;;;;;1.06;100.00;100463.41;5003122;28;20030;-82
2020/12/10 11:08:26;;;;;;;26.73;14.55;;;;;;;1.25;100.00;100468.50;4968173;28;20113;-81
2020/12/10 11:10:51;;;;;;;47.30;25.63;;;;;;;1.38;100.00;100458.44;5002877;28;20053;-81
2020/12/10 11:13:17;;;;;;;79.90;42.33;;;;;;;1.33;100.00;100455.47;4987027;28;20117;-82
2020/12/10 11:15:42;;;;;;;73.40;40.08;;;;;;;1.37;100.00;100463.84;4966755;28;20043;-81
2020/12/10 11:18:08;;;;;;;25.00;13.27;;;;;;;1.12;100.00;100460.19;4970311;28;20035;-81
2020/12/10 11:20:33;;;;;;;28.13;16.38;;;;;;;1.18;100.00;100464.00;4980601;28;20452;-82